Terminal Aerodrome Forecast
Issued by NWS

Home | Current Version | Previous Version | Text Only | Print | Product List | Glossary On
Versions: 1 2 3 4 5 6 7 8 9 10 11 12 13 14 15 16 17 18 19 20 21 22
000
FTUS42 KTBW 272300 RRA
TAFPIE
TAF
KPIE 272341Z 2800/2824 06008KT P6SM OVC020
     FM280200 03011KT P6SM SCT007 OVC015
     FM280900 04010KT 6SM BR VCSH SCT007 OVC015
     FM281500 06009KT P6SM VCSH BKN025=

USA.gov is the U.S. government's official web portal to all federal, state and local government web resources and services.